Main page
METAR-TAF:

METAR-TAF

Airports :

Coningsby, England

RAF Coningsby

latitude: 53-05N, longitude: 000-10W, elevation: 7 m

Current weather observation

The report was made 24 minutes ago, at 08:50 UTC
Wind 9 kt from the South/Southwest
Temperature 12°C
Humidity 94%
Pressure 1019 hPa
Visibility 10 km or more
Broken clouds at a height of 1200 ft
Overcast at a height of 2000 ft

METAR: EGXC 290850Z 21009KT 9999 BKN012 OVC020 12/11 Q1019 GRN BECMG BKN018 WHT

Time: 10:14 (09:14 UTC)


TAF: missing

Weather observations and forecasts of more than 4000 airports (METAR and TAF reports).

The available stations are represented by yellow and red dots on the map.

Hover mouse over dot to see the name of the station.

Then click to see weather observations and forecasts.

To change the map : click on the green buttons with a black cross to zoom in, on the green button with a dash to zoom out, or on the green arrows for adjacent maps.


METAR-TAF: